createdAt,value
2018-07-26T00:00:32.856Z,100836.52
2018-07-26T00:03:02.287Z,100832.97
2018-07-26T00:05:31.136Z,100841.48
2018-07-26T00:08:00.680Z,100837.11
2018-07-26T00:10:29.488Z,100842.30
2018-07-26T00:12:58.283Z,100843.94
2018-07-26T00:15:27.105Z,100840.97
2018-07-26T00:17:55.888Z,100839.33
2018-07-26T00:20:24.775Z,100838.75
2018-07-26T00:22:53.586Z,100837.69
2018-07-26T00:25:23.080Z,100838.51
2018-07-26T00:27:51.853Z,100835.23
2018-07-26T00:30:20.679Z,100848.61
2018-07-26T00:32:50.245Z,100839.89
2018-07-26T00:35:19.275Z,100841.53
2018-07-26T00:37:48.743Z,100844.01
2018-07-26T00:40:17.780Z,100840.45
2018-07-26T00:42:47.628Z,100840.46
2018-07-26T00:45:16.704Z,100845.66
2018-07-26T00:47:45.908Z,100841.27
2018-07-26T00:50:15.385Z,100847.80
2018-07-26T00:52:44.199Z,100846.16
2018-07-26T00:55:12.985Z,100850.80
2018-07-26T00:57:42.302Z,100857.37
2018-07-26T01:00:11.835Z,100856.84
2018-07-26T01:02:41.677Z,100855.72
2018-07-26T01:05:10.513Z,100854.11
2018-07-26T01:07:40.095Z,100856.84
2018-07-26T01:10:09.442Z,100859.80
2018-07-26T01:12:38.168Z,100866.34
2018-07-26T01:15:07.831Z,100864.96
2018-07-26T01:17:36.616Z,100861.42
2018-07-26T01:20:06.163Z,100869.59
2018-07-26T01:22:35.446Z,100864.13
2018-07-26T01:25:04.689Z,100870.92
2018-07-26T01:27:33.481Z,100867.92
2018-07-26T01:30:02.257Z,100870.36
2018-07-26T01:32:31.619Z,100862.70
2018-07-26T01:35:00.553Z,100865.72
2018-07-26T01:37:29.911Z,100864.60
2018-07-26T01:39:58.668Z,100870.84
2018-07-26T01:42:27.455Z,100873.86
2018-07-26T01:44:56.311Z,100873.28
2018-07-26T01:47:25.248Z,100880.08
2018-07-26T01:49:54.158Z,100886.35
2018-07-26T01:52:22.999Z,100882.23
2018-07-26T01:54:51.751Z,100879.44
2018-07-26T01:57:21.039Z,100886.77
2018-07-26T01:59:50.668Z,100887.27
2018-07-26T02:02:20.971Z,100882.62
2018-07-26T02:04:49.682Z,100886.12
2018-07-26T02:07:19.607Z,100884.21
2018-07-26T02:09:50.067Z,100881.44
2018-07-26T02:12:19.164Z,100888.77
2018-07-26T02:14:49.375Z,100893.66
2018-07-26T02:17:18.409Z,100890.39
2018-07-26T02:19:47.592Z,100896.69
2018-07-26T02:22:17.933Z,100896.97
2018-07-26T02:24:47.930Z,100904.06
2018-07-26T02:27:17.403Z,100904.34
2018-07-26T02:29:46.660Z,100903.52
2018-07-26T02:32:16.879Z,100901.05
2018-07-26T02:34:46.036Z,100900.77
2018-07-26T02:37:17.142Z,100904.58
2018-07-26T02:39:46.218Z,100909.46
2018-07-26T02:42:15.019Z,100909.72
2018-07-26T02:44:43.854Z,100905.35
2018-07-26T02:47:12.703Z,100907.00
2018-07-26T02:49:41.671Z,100899.62
2018-07-26T02:52:10.460Z,100901.79
2018-07-26T02:54:39.216Z,100911.28
2018-07-26T02:57:08.599Z,100918.08
2018-07-26T02:59:38.092Z,100922.28
2018-07-26T03:02:07.790Z,100924.07
2018-07-26T03:04:36.553Z,100925.58
2018-07-26T03:07:06.271Z,100920.22
2018-07-26T03:09:35.704Z,100909.94
2018-07-26T03:12:04.462Z,100912.20
2018-07-26T03:14:39.381Z,100913.08
2018-07-26T03:17:08.169Z,100907.08
2018-07-26T03:19:36.975Z,100910.06
2018-07-26T03:22:06.621Z,100910.05
2018-07-26T03:24:36.139Z,100909.16
2018-07-26T03:27:04.927Z,100908.82
2018-07-26T03:29:33.782Z,100900.27
2018-07-26T03:32:03.209Z,100905.03
2018-07-26T03:34:32.021Z,100909.77
2018-07-26T03:37:00.839Z,100906.45
2018-07-26T03:39:30.140Z,100910.60
2018-07-26T03:41:58.921Z,100905.39
2018-07-26T03:44:27.736Z,100910.84
2018-07-26T03:46:56.595Z,100911.50
2018-07-26T03:49:25.392Z,100920.15
2018-07-26T03:51:54.302Z,100923.92
2018-07-26T03:54:23.172Z,100923.77
2018-07-26T03:56:52.880Z,100923.86
2018-07-26T03:59:22.489Z,100919.81
2018-07-26T04:01:51.856Z,100923.47
2018-07-26T04:04:20.648Z,100921.66
2018-07-26T04:06:50.053Z,100923.77
2018-07-26T04:09:19.491Z,100919.42
2018-07-26T04:11:48.543Z,100928.11
2018-07-26T04:14:18.330Z,100929.23
2018-07-26T04:16:47.347Z,100939.59
2018-07-26T04:19:16.613Z,100948.31
2018-07-26T04:21:46.485Z,100937.20
2018-07-26T04:24:17.046Z,100940.81
2018-07-26T04:26:46.846Z,100944.03
2018-07-26T04:29:15.612Z,100946.12
2018-07-26T04:31:45.430Z,100946.25
2018-07-26T04:34:14.399Z,100945.52
2018-07-26T04:36:43.177Z,100944.21
2018-07-26T04:39:12.543Z,100947.39
2018-07-26T04:41:41.412Z,100950.45
2018-07-26T04:44:10.407Z,100957.64
2018-07-26T04:46:39.293Z,100959.02
2018-07-26T04:49:08.105Z,100959.35
2018-07-26T04:51:36.991Z,100962.95
2018-07-26T04:54:05.841Z,100966.80
2018-07-26T04:56:35.079Z,100963.47
2018-07-26T04:59:04.792Z,100966.25
2018-07-26T05:01:34.270Z,100970.87
2018-07-26T05:04:03.033Z,100975.80
2018-07-26T05:06:31.838Z,100972.28
2018-07-26T05:09:01.336Z,100973.66
2018-07-26T05:11:30.096Z,100974.48
2018-07-26T05:13:58.851Z,100975.84
2018-07-26T05:16:28.970Z,100973.05
2018-07-26T05:18:57.750Z,100977.44
2018-07-26T05:21:26.583Z,100977.17
2018-07-26T05:23:55.881Z,100979.94
2018-07-26T05:26:25.031Z,100982.13
2018-07-26T05:28:53.798Z,100976.13
2018-07-26T05:31:23.504Z,100971.75
2018-07-26T05:33:52.228Z,100976.95
2018-07-26T05:36:21.274Z,100979.15
2018-07-26T05:38:51.115Z,100980.77
2018-07-26T05:41:20.496Z,100982.11
2018-07-26T05:43:49.517Z,100987.31
2018-07-26T05:46:19.195Z,100980.19
2018-07-26T05:48:48.424Z,100987.23
2018-07-26T05:51:18.272Z,100991.59
2018-07-26T05:53:47.327Z,100987.68
2018-07-26T05:56:17.829Z,100990.90
2018-07-26T05:58:47.835Z,100989.52
2018-07-26T06:01:18.092Z,100988.69
2018-07-26T06:03:48.304Z,100993.03
2018-07-26T06:06:18.168Z,100991.05
2018-07-26T06:08:48.589Z,100991.22
2018-07-26T06:11:17.894Z,100992.28
2018-07-26T06:13:47.104Z,100993.84
2018-07-26T06:16:17.219Z,101002.78
2018-07-26T06:18:46.204Z,101003.52
2018-07-26T06:21:14.959Z,100999.36
2018-07-26T06:23:44.584Z,100999.22
2018-07-26T06:26:14.258Z,101005.67
2018-07-26T06:28:43.062Z,101005.92
2018-07-26T06:31:12.449Z,101009.20
2018-07-26T06:33:41.270Z,101010.23
2018-07-26T06:36:10.241Z,101013.75
2018-07-26T06:38:39.580Z,101008.10
2018-07-26T06:41:08.395Z,101009.31
2018-07-26T06:43:37.183Z,101013.52
2018-07-26T06:46:06.025Z,101019.72
2018-07-26T06:48:34.835Z,101020.66
2018-07-26T06:51:03.710Z,101017.00
2018-07-26T06:53:32.505Z,101020.27
2018-07-26T06:56:01.960Z,101020.66
2018-07-26T06:58:31.376Z,101023.31
2018-07-26T07:01:00.211Z,101021.25
2018-07-26T07:03:29.753Z,101017.39
2018-07-26T07:05:58.515Z,101025.34
2018-07-26T07:08:28.277Z,101013.86
2018-07-26T07:10:57.415Z,101023.37
2018-07-26T07:13:26.236Z,101026.13
2018-07-26T07:15:55.796Z,101023.91
2018-07-26T07:18:24.583Z,101025.54
2018-07-26T07:20:53.390Z,101021.05
2018-07-26T07:23:23.063Z,101027.78
2018-07-26T07:25:52.704Z,101025.30
2018-07-26T07:28:21.515Z,101032.69
2018-07-26T07:30:51.123Z,101032.51
2018-07-26T07:33:20.049Z,101033.55
2018-07-26T07:35:49.003Z,101030.88
2018-07-26T07:38:18.243Z,101029.27
2018-07-26T07:40:48.022Z,101033.31
2018-07-26T07:43:17.042Z,101033.54
2018-07-26T07:45:45.978Z,101027.44
2018-07-26T07:48:14.845Z,101035.66
2018-07-26T07:50:43.684Z,101030.14
2018-07-26T07:53:12.935Z,101035.30
2018-07-26T07:55:42.629Z,101029.03
2018-07-26T07:58:11.416Z,101032.84
2018-07-26T08:00:40.899Z,101030.35
2018-07-26T08:03:10.466Z,101029.42
2018-07-26T08:05:39.206Z,101036.81
2018-07-26T08:08:09.356Z,101033.12
2018-07-26T08:10:38.126Z,101036.09
2018-07-26T08:13:07.126Z,101038.62
2018-07-26T08:15:37.006Z,101036.01
2018-07-26T08:18:06.443Z,101040.87
2018-07-26T08:20:35.224Z,101048.92
2018-07-26T08:23:04.855Z,101039.80
2018-07-26T08:25:34.158Z,101036.87
2018-07-26T08:28:02.954Z,101037.19
2018-07-26T08:30:31.747Z,101039.11
2018-07-26T08:33:01.188Z,101035.91
2018-07-26T08:35:30.067Z,101037.77
2018-07-26T08:37:58.863Z,101041.00
2018-07-26T08:40:28.640Z,101041.20
2018-07-26T08:42:57.446Z,101042.78
2018-07-26T08:45:26.295Z,101037.55
2018-07-26T08:47:55.147Z,101043.70
2018-07-26T08:50:23.923Z,101043.70
2018-07-26T08:52:52.764Z,101048.13
2018-07-26T08:55:22.256Z,101046.63
2018-07-26T08:57:51.019Z,101041.63
2018-07-26T09:00:20.775Z,101044.88
2018-07-26T09:02:50.612Z,101046.39
2018-07-26T09:05:19.623Z,101041.34
2018-07-26T09:07:49.502Z,101048.69
2018-07-26T09:10:19.076Z,101043.48
2018-07-26T09:12:48.259Z,101046.63
2018-07-26T09:15:17.934Z,101048.07
2018-07-26T09:17:47.148Z,101051.33
2018-07-26T09:20:16.121Z,101051.72
2018-07-26T09:22:45.500Z,101048.89
2018-07-26T09:25:14.779Z,101052.76
2018-07-26T09:27:43.538Z,101049.34
2018-07-26T09:30:12.664Z,101055.05
2018-07-26T09:32:43.008Z,101045.78
2018-07-26T09:35:11.779Z,101047.16
2018-07-26T09:37:40.567Z,101054.67
2018-07-26T09:40:10.677Z,101055.57
2018-07-26T09:42:39.440Z,101056.39
2018-07-26T09:45:08.291Z,101061.13
2018-07-26T09:47:37.176Z,101058.27
2018-07-26T09:50:06.057Z,101054.69
2018-07-26T09:52:35.344Z,101060.83
2018-07-26T09:55:04.303Z,101057.25
2018-07-26T09:57:33.685Z,101060.78
2018-07-26T10:00:03.123Z,101063.66
2018-07-26T10:02:32.519Z,101063.73
2018-07-26T10:05:01.227Z,101059.02
2018-07-26T10:07:30.476Z,101057.69
2018-07-26T10:09:59.855Z,101058.83
2018-07-26T10:12:28.625Z,101056.63
2018-07-26T10:14:58.077Z,101053.55
2018-07-26T10:17:26.811Z,101052.09
2018-07-26T10:19:55.584Z,101051.75
2018-07-26T10:22:25.123Z,101044.34
2018-07-26T10:24:55.108Z,101056.78
2018-07-26T10:27:23.881Z,101050.63
2018-07-26T10:29:52.667Z,101050.93
2018-07-26T10:32:22.019Z,101057.36
2018-07-26T10:34:50.850Z,101053.64
2018-07-26T10:37:19.646Z,101054.03
2018-07-26T10:39:49.689Z,101051.91
2018-07-26T10:42:18.811Z,101052.00
2018-07-26T10:44:47.733Z,101053.48
2018-07-26T10:47:16.891Z,101056.08
2018-07-26T10:49:45.720Z,101054.62
2018-07-26T10:52:14.987Z,101051.17
2018-07-26T10:54:43.859Z,101048.98
2018-07-26T10:57:13.215Z,101050.13
2018-07-26T10:59:42.802Z,101049.94
2018-07-26T11:02:12.988Z,101051.73
2018-07-26T11:04:41.762Z,101051.29
2018-07-26T11:07:10.702Z,101041.66
2018-07-26T11:09:40.309Z,101037.64
2018-07-26T11:12:09.099Z,101048.14
2018-07-26T11:14:38.366Z,101043.87
2018-07-26T11:17:07.158Z,101042.03
2018-07-26T11:19:35.998Z,101032.80
2018-07-26T11:22:05.631Z,101039.25
2018-07-26T11:24:35.122Z,101041.84
2018-07-26T11:27:03.970Z,101036.02
2018-07-26T11:29:32.820Z,101038.89
2018-07-26T11:32:02.633Z,101033.83
2018-07-26T11:34:31.402Z,101031.11
2018-07-26T11:37:30.789Z,101034.37
2018-07-26T11:40:00.153Z,101035.12
2018-07-26T11:42:28.936Z,101033.64
2018-07-26T11:44:57.838Z,101035.93
2018-07-26T11:47:26.663Z,101039.81
2018-07-26T11:49:55.404Z,101035.08
2018-07-26T11:52:24.328Z,101036.06
2018-07-26T11:54:53.359Z,101032.64
2018-07-26T11:57:22.775Z,101033.97
2018-07-26T11:59:52.368Z,101033.64
2018-07-26T12:02:21.768Z,101033.55
2018-07-26T12:04:50.821Z,101034.25
2018-07-26T12:07:19.682Z,101037.66
2018-07-26T12:09:49.470Z,101024.55
2018-07-26T12:12:18.937Z,101031.39
2018-07-26T12:14:48.402Z,101021.71
2018-07-26T12:17:17.426Z,101022.12
2018-07-26T12:19:46.274Z,101022.66
2018-07-26T12:22:15.712Z,101021.81
2018-07-26T12:24:45.118Z,101022.02
2018-07-26T12:27:13.934Z,101026.83
2018-07-26T12:29:42.668Z,101015.25
2018-07-26T12:32:12.169Z,101007.51
2018-07-26T12:34:40.952Z,101009.85
2018-07-26T12:37:09.719Z,101007.89
2018-07-26T12:39:39.072Z,101007.41
2018-07-26T12:42:07.978Z,101003.30
2018-07-26T12:44:36.748Z,101006.19
2018-07-26T12:47:05.877Z,100997.09
2018-07-26T12:49:34.888Z,101005.01
2018-07-26T12:52:03.810Z,100998.99
2018-07-26T12:54:32.648Z,101003.16
2018-07-26T12:57:02.405Z,100998.42
2018-07-26T12:59:32.068Z,101003.73
2018-07-26T13:02:01.564Z,100989.42
2018-07-26T13:04:30.377Z,100997.74
2018-07-26T13:06:59.169Z,100991.62
2018-07-26T13:09:28.813Z,100997.55
2018-07-26T13:11:57.622Z,100989.36
2018-07-26T13:14:27.275Z,100990.75
2018-07-26T13:16:56.076Z,100980.25
2018-07-26T13:19:24.891Z,100984.52
2018-07-26T13:21:54.338Z,100984.19
2018-07-26T13:24:23.789Z,100976.77
2018-07-26T13:26:52.542Z,100978.30
2018-07-26T13:29:21.780Z,100978.19
2018-07-26T13:31:51.387Z,100971.04
2018-07-26T13:34:20.354Z,100975.88
2018-07-26T13:36:49.360Z,100969.70
2018-07-26T13:39:19.033Z,100974.11
2018-07-26T13:41:48.108Z,100972.72
2018-07-26T13:44:17.625Z,100969.36
2018-07-26T13:46:46.533Z,100972.97
2018-07-26T13:49:15.352Z,100971.58
2018-07-26T13:51:44.346Z,100968.79
2018-07-26T13:54:13.129Z,100970.19
2018-07-26T13:56:42.607Z,100970.30
2018-07-26T13:59:12.036Z,100963.75
2018-07-26T14:01:41.412Z,100964.30
2018-07-26T14:04:10.337Z,100967.66
2018-07-26T14:06:39.071Z,100963.26
2018-07-26T14:09:10.365Z,100963.86
2018-07-26T14:11:39.175Z,100959.56
2018-07-26T14:14:08.219Z,100973.12
2018-07-26T14:16:38.170Z,100965.46
2018-07-26T14:19:07.591Z,100966.73
2018-07-26T14:21:36.505Z,100967.19
2018-07-26T14:24:11.052Z,100959.81
2018-07-26T14:26:39.842Z,100960.72
2018-07-26T14:29:08.629Z,100961.65
2018-07-26T14:31:38.337Z,100963.97
2018-07-26T14:34:07.141Z,100963.16
2018-07-26T14:36:35.958Z,100969.41
2018-07-26T14:39:08.286Z,100972.97
2018-07-26T14:41:37.159Z,100965.59
2018-07-26T14:44:06.068Z,100957.82
2018-07-26T14:46:34.863Z,100965.23
2018-07-26T14:49:04.697Z,100963.95
2018-07-26T14:51:33.871Z,100963.48
2018-07-26T14:54:02.751Z,100958.77
2018-07-26T14:56:32.137Z,100958.42
2018-07-26T14:59:01.665Z,100956.20
2018-07-26T15:01:31.075Z,100955.16
2018-07-26T15:03:59.821Z,100953.31
2018-07-26T15:06:28.584Z,100944.97
2018-07-26T15:08:58.014Z,100954.00
2018-07-26T15:11:26.803Z,100947.62
2018-07-26T15:13:55.506Z,100950.88
2018-07-26T15:16:25.091Z,100948.69
2018-07-26T15:18:53.866Z,100958.64
2018-07-26T15:21:22.594Z,100948.42
2018-07-26T15:23:52.359Z,100945.87
2018-07-26T15:26:21.168Z,100942.41
2018-07-26T15:28:50.269Z,100952.70
2018-07-26T15:31:19.942Z,100948.87
2018-07-26T15:33:49.558Z,100960.23
2018-07-26T15:36:18.607Z,100966.50
2018-07-26T15:38:48.482Z,100969.37
2018-07-26T15:41:17.510Z,100957.13
2018-07-26T15:43:46.322Z,100962.05
2018-07-26T15:46:15.187Z,100972.44
2018-07-26T15:48:43.969Z,100965.72
2018-07-26T15:51:13.025Z,100967.06
2018-07-26T15:53:42.085Z,100962.90
2018-07-26T15:56:12.073Z,100965.64
2018-07-26T15:58:41.705Z,100963.06
2018-07-26T16:01:11.483Z,100970.20
2018-07-26T16:03:40.846Z,100963.67
2018-07-26T16:06:09.580Z,100975.09
2018-07-26T16:08:38.954Z,100968.76
2018-07-26T16:11:07.727Z,100973.13
2018-07-26T16:13:36.508Z,100971.86
2018-07-26T16:16:06.031Z,100974.36
2018-07-26T16:18:34.803Z,100984.06
2018-07-26T16:21:03.594Z,100981.08
2018-07-26T16:23:33.097Z,100981.76
2018-07-26T16:26:02.573Z,100978.14
2018-07-26T16:28:31.346Z,100983.38
2018-07-26T16:31:00.746Z,100971.32
2018-07-26T16:33:29.511Z,100971.11
2018-07-26T16:35:58.523Z,100967.95
2018-07-26T16:38:27.491Z,100966.52
2018-07-26T16:40:56.952Z,100973.83
2018-07-26T16:43:25.691Z,100978.76
2018-07-26T16:45:54.480Z,100975.59
2018-07-26T16:48:23.259Z,100974.81
2018-07-26T16:50:52.491Z,100979.86
2018-07-26T16:53:21.428Z,100981.48
2018-07-26T16:55:51.132Z,100991.80
2018-07-26T16:58:21.442Z,100978.33
2018-07-26T17:00:50.458Z,100976.21
2018-07-26T17:03:20.192Z,100982.41
2018-07-26T17:05:49.200Z,100977.92
2018-07-26T17:08:19.055Z,100982.47
2018-07-26T17:10:47.930Z,100977.16
2018-07-26T17:13:16.756Z,100981.70
2018-07-26T17:15:46.388Z,100987.13
2018-07-26T17:18:15.279Z,100986.75
2018-07-26T17:20:44.171Z,100990.28
2018-07-26T17:23:13.783Z,100987.41
2018-07-26T17:25:43.065Z,100990.59
2018-07-26T17:28:12.086Z,100986.75
2018-07-26T17:30:40.824Z,100994.22
2018-07-26T17:33:10.142Z,100992.41
2018-07-26T17:35:38.960Z,100998.44
2018-07-26T17:38:07.683Z,100998.61
2018-07-26T17:40:37.176Z,101004.72
2018-07-26T17:43:05.903Z,101006.58
2018-07-26T17:45:34.726Z,101008.59
2018-07-26T17:48:03.519Z,101010.21
2018-07-26T17:50:32.255Z,101009.40
2018-07-26T17:53:01.352Z,101016.38
2018-07-26T17:55:31.026Z,101014.66
2018-07-26T17:57:59.800Z,101019.69
2018-07-26T18:00:29.380Z,101014.23
2018-07-26T18:02:58.987Z,101018.04
2018-07-26T18:05:27.710Z,101025.30
2018-07-26T18:07:57.152Z,101019.28
2018-07-26T18:10:25.863Z,101027.66
2018-07-26T18:12:54.631Z,101028.48
2018-07-26T18:15:24.056Z,101034.16
2018-07-26T18:17:52.784Z,101039.66
2018-07-26T18:20:21.524Z,101036.48
2018-07-26T18:22:51.327Z,101041.27
2018-07-26T18:25:20.842Z,101038.28
2018-07-26T18:27:49.923Z,101047.40
2018-07-26T18:30:19.847Z,101057.41
2018-07-26T18:32:49.949Z,101060.31
2018-07-26T18:35:20.890Z,101060.84
2018-07-26T18:37:49.983Z,101066.67
2018-07-26T18:40:19.648Z,101071.80
2018-07-26T18:42:49.416Z,101072.16
2018-07-26T18:45:18.437Z,101077.43
2018-07-26T18:47:47.350Z,101078.61
2018-07-26T18:50:16.150Z,101086.66
2018-07-26T18:52:45.030Z,101090.29
2018-07-26T18:55:14.163Z,101094.81
2018-07-26T18:57:43.974Z,101099.28
2018-07-26T19:00:14.017Z,101101.67
2018-07-26T19:02:43.820Z,101112.03
2018-07-26T19:05:12.560Z,101108.25
2018-07-26T19:07:41.319Z,101109.81
2018-07-26T19:10:11.961Z,101116.34
2018-07-26T19:12:40.831Z,101115.16
2018-07-26T19:15:11.844Z,101119.78
2018-07-26T19:17:40.620Z,101129.36
2018-07-26T19:20:10.755Z,101126.91
2018-07-26T19:22:40.126Z,101132.85
2018-07-26T19:25:10.685Z,101133.53
2018-07-26T19:27:39.646Z,101135.02
2018-07-26T19:30:11.244Z,101132.86
2018-07-26T19:32:40.704Z,101134.87
2018-07-26T19:35:09.467Z,101133.52
2018-07-26T19:37:38.277Z,101138.75
2018-07-26T19:40:09.149Z,101145.98
2018-07-26T19:42:38.671Z,101150.85
2018-07-26T19:45:08.303Z,101148.63
2018-07-26T19:47:37.401Z,101148.63
2018-07-26T19:50:06.289Z,101156.33
2018-07-26T19:52:35.392Z,101163.70
2018-07-26T19:55:04.439Z,101162.55
2018-07-26T19:57:33.990Z,101168.83
2018-07-26T20:00:03.554Z,101176.20
2018-07-26T20:02:32.853Z,101170.14
2018-07-26T20:05:01.906Z,101177.59
2018-07-26T20:07:30.717Z,101177.03
2018-07-26T20:10:00.373Z,101189.56
2018-07-26T20:12:29.255Z,101185.29
2018-07-26T20:14:58.860Z,101185.67
2018-07-26T20:17:27.685Z,101189.40
2018-07-26T20:19:56.444Z,101184.01
2018-07-26T20:22:26.016Z,101191.86
2018-07-26T20:24:55.354Z,101186.69
2018-07-26T20:27:24.163Z,101198.66
2018-07-26T20:29:52.911Z,101197.36
2018-07-26T20:32:22.098Z,101197.50
2018-07-26T20:34:51.053Z,101194.48
2018-07-26T20:37:20.221Z,101198.69
2018-07-26T20:39:50.186Z,101194.66
2018-07-26T20:42:19.251Z,101194.72
2018-07-26T20:44:48.107Z,101201.14
2018-07-26T20:47:16.929Z,101200.13
2018-07-26T20:49:45.731Z,101196.42
2018-07-26T20:52:14.663Z,101198.68
2018-07-26T20:54:43.447Z,101199.06
2018-07-26T20:57:12.974Z,101199.97
2018-07-26T20:59:42.639Z,101201.14
2018-07-26T21:02:12.030Z,101206.16
2018-07-26T21:04:40.848Z,101210.34
2018-07-26T21:07:09.710Z,101213.97
2018-07-26T21:09:39.020Z,101215.16
2018-07-26T21:12:07.858Z,101219.36
2018-07-26T21:14:37.132Z,101215.88
2018-07-26T21:17:06.051Z,101217.88
2018-07-26T21:19:34.800Z,101214.62
2018-07-26T21:22:04.591Z,101218.77
2018-07-26T21:24:34.085Z,101221.61
2018-07-26T21:27:02.950Z,101218.64
2018-07-26T21:29:31.712Z,101220.89
2018-07-26T21:32:01.661Z,101225.89
2018-07-26T21:34:30.495Z,101224.88
2018-07-26T21:36:59.307Z,101228.21
2018-07-26T21:39:28.564Z,101230.48
2018-07-26T21:41:57.657Z,101232.46
2018-07-26T21:44:26.451Z,101236.11
2018-07-26T21:46:55.283Z,101235.59
2018-07-26T21:49:24.341Z,101244.44
2018-07-26T21:51:53.365Z,101245.58
2018-07-26T21:54:22.245Z,101245.86
2018-07-26T21:56:51.960Z,101246.44
2018-07-26T21:59:21.694Z,101252.77
2018-07-26T22:01:51.897Z,101257.22
2018-07-26T22:04:20.891Z,101256.42
2018-07-26T22:06:52.470Z,101255.09
2018-07-26T22:09:21.692Z,101262.52
2018-07-26T22:11:50.764Z,101262.58
2018-07-26T22:14:20.442Z,101261.77
2018-07-26T22:16:50.123Z,101263.70
2018-07-26T22:19:19.212Z,101268.13
2018-07-26T22:21:49.359Z,101265.39
2018-07-26T22:24:18.878Z,101263.18
2018-07-26T22:26:47.706Z,101264.31
2018-07-26T22:29:16.516Z,101268.20
2018-07-26T22:31:46.028Z,101272.31
2018-07-26T22:34:14.811Z,101273.45
2018-07-26T22:36:43.620Z,101274.00
2018-07-26T22:39:13.026Z,101277.02
2018-07-26T22:41:42.153Z,101274.84
2018-07-26T22:44:10.937Z,101281.72
2018-07-26T22:46:39.751Z,101282.55
2018-07-26T22:49:08.639Z,101280.34
2018-07-26T22:51:38.656Z,101284.42
2018-07-26T22:54:07.617Z,101289.10
2018-07-26T22:56:37.109Z,101292.38
2018-07-26T22:59:07.350Z,101289.91
2018-07-26T23:01:36.754Z,101290.48
2018-07-26T23:04:05.627Z,101291.02
2018-07-26T23:06:34.381Z,101293.77
2018-07-26T23:09:04.192Z,101301.68
2018-07-26T23:11:33.012Z,101304.70
2018-07-26T23:14:01.823Z,101309.33
2018-07-26T23:16:31.186Z,101313.16
2018-07-26T23:18:59.938Z,101303.27
2018-07-26T23:21:28.726Z,101310.91
2018-07-26T23:23:58.663Z,101310.34
2018-07-26T23:26:28.520Z,101317.44
2018-07-26T23:28:57.323Z,101308.69
2018-07-26T23:31:26.690Z,101311.97
2018-07-26T23:33:55.582Z,101311.41
2018-07-26T23:36:24.395Z,101312.20
2018-07-26T23:38:54.128Z,101311.64
2018-07-26T23:41:22.943Z,101317.13
2018-07-26T23:43:51.780Z,101313.30
2018-07-26T23:46:21.237Z,101319.03
2018-07-26T23:48:50.486Z,101319.02
2018-07-26T23:51:19.718Z,101320.09
2018-07-26T23:53:48.862Z,101322.83
2018-07-26T23:56:19.339Z,101328.00
2018-07-26T23:58:49.315Z,101332.89
